IMM weather

Immokalee Regional Airport
Immokalee, Florida, United States

Public forecast

Using degrees Fahrenheit for public forecast. Weather courtesy of forecast.io.

Current aviation weather report (METAR) for Immokalee Regional Airport

Retrieved 2020/03/28 14:35 UTC (18 minutes ago):

KIMM 281435Z AUTO 12008KT 10SM CLR 27/18 A3010 RMK AO2

Closest aviation forecast (TAF) to Immokalee Regional Airport

Closest forecast is Southwest Florida International Airport, 20.0 nm (37.1 km) WNW. Retrieved 2020/03/28 12:39 UTC (2 hours ago):

TAF KRSW 281136Z 2812/2912 VRB03KT P6SM FEW010 FEW250 FM281400 14008KT P6SM FEW025 SCT250 FM281900 21009KT P6SM FEW040 FM290100 VRB03KT P6SM SKC